createdAt,value
2023-10-26T00:01:06.869Z,99064.16
2023-10-26T00:03:53.275Z,99062.09
2023-10-26T00:06:39.445Z,99059.59
2023-10-26T00:09:27.315Z,99051.25
2023-10-26T00:12:13.825Z,99051.25
2023-10-26T00:15:00.338Z,99051.25
2023-10-26T00:17:46.850Z,99052.91
2023-10-26T00:20:33.082Z,99051.88
2023-10-26T00:23:19.372Z,99047.88
2023-10-26T00:26:07.282Z,99044.56
2023-10-26T00:28:54.060Z,99036.22
2023-10-26T00:31:40.455Z,99040.00
2023-10-26T00:34:26.677Z,99032.47
2023-10-26T00:37:13.120Z,99035.19
2023-10-26T00:40:00.259Z,99024.53
2023-10-26T00:42:47.916Z,99024.31
2023-10-26T00:45:36.622Z,99010.34
2023-10-26T00:48:24.315Z,99015.56
2023-10-26T00:51:10.809Z,99004.03
2023-10-26T00:53:57.533Z,99012.59
2023-10-26T00:56:44.898Z,99007.41
2023-10-26T00:59:33.679Z,99004.69
2023-10-26T01:02:20.764Z,99006.34
2023-10-26T01:05:07.712Z,99000.31
2023-10-26T01:07:53.780Z,98995.69
2023-10-26T01:10:40.344Z,98991.97
2023-10-26T01:13:27.509Z,98992.78
2023-10-26T01:16:16.152Z,98985.69
2023-10-26T01:19:02.759Z,98986.53
2023-10-26T01:21:51.318Z,98971.91
2023-10-26T01:24:37.855Z,98981.09
2023-10-26T01:27:24.010Z,98981.94
2023-10-26T01:30:12.075Z,98978.38
2023-10-26T01:32:58.642Z,98969.41
2023-10-26T01:35:47.078Z,98980.28
2023-10-26T01:38:34.728Z,98983.00
2023-10-26T01:41:21.051Z,98975.66
2023-10-26T01:44:07.980Z,98971.06
2023-10-26T01:46:53.986Z,98976.50
2023-10-26T01:49:40.527Z,98977.56
2023-10-26T01:55:29.240Z,98963.97
2023-10-26T01:58:15.595Z,98962.94
2023-10-26T02:01:02.241Z,98960.22
2023-10-26T02:03:48.186Z,98951.03
2023-10-26T02:06:34.768Z,98948.53
2023-10-26T02:09:21.358Z,98953.97
2023-10-26T02:12:09.510Z,98947.69
2023-10-26T02:14:55.821Z,98953.97
2023-10-26T02:17:42.267Z,98950.19
2023-10-26T02:20:28.487Z,98954.78
2023-10-26T02:23:15.013Z,98953.97
2023-10-26T02:26:02.566Z,98946.84
2023-10-26T02:28:50.596Z,98949.34
2023-10-26T02:31:36.973Z,98949.34
2023-10-26T02:34:23.330Z,98946.03
2023-10-26T02:37:09.733Z,98951.25
2023-10-26T02:39:56.302Z,98948.53
2023-10-26T02:42:42.849Z,98941.41
2023-10-26T02:45:30.672Z,98951.44
2023-10-26T02:48:16.955Z,98941.63
2023-10-26T02:51:04.480Z,98945.19
2023-10-26T02:53:50.833Z,98939.09
2023-10-26T02:56:37.233Z,98933.69
2023-10-26T02:59:23.658Z,98937.25
2023-10-26T03:02:11.488Z,98936.19
2023-10-26T03:04:57.587Z,98935.16
2023-10-26T03:07:46.487Z,98928.69
2023-10-26T03:10:32.987Z,98925.13
2023-10-26T03:13:19.243Z,98919.47
2023-10-26T03:16:06.482Z,98929.53
2023-10-26T03:18:54.160Z,98935.16
2023-10-26T03:21:40.239Z,98933.06
2023-10-26T03:24:26.639Z,98927.22
2023-10-26T03:27:13.302Z,98924.31
2023-10-26T03:29:59.708Z,98924.31
2023-10-26T03:32:46.209Z,98931.41
2023-10-26T03:35:36.638Z,98939.56
2023-10-26T03:38:23.290Z,98935.16
2023-10-26T03:41:09.639Z,98935.59
2023-10-26T03:43:57.073Z,98932.25
2023-10-26T03:46:43.448Z,98936.41
2023-10-26T03:49:29.884Z,98938.09
2023-10-26T03:52:17.661Z,98936.41
2023-10-26T03:55:05.831Z,98920.13
2023-10-26T03:57:52.211Z,98929.75
2023-10-26T04:00:38.718Z,98926.00
2023-10-26T04:03:25.312Z,98926.84
2023-10-26T04:06:11.674Z,98929.81
2023-10-26T04:08:59.380Z,98920.59
2023-10-26T04:11:46.272Z,98927.72
2023-10-26T04:14:33.405Z,98916.84
2023-10-26T04:17:19.665Z,98920.59
2023-10-26T04:20:08.757Z,98924.38
2023-10-26T04:22:55.571Z,98915.38
2023-10-26T04:28:47.730Z,98911.84
2023-10-26T04:31:38.288Z,98910.81
2023-10-26T04:34:24.873Z,98908.50
2023-10-26T04:37:11.092Z,98917.69
2023-10-26T04:39:58.257Z,98900.16
2023-10-26T04:42:46.549Z,98906.00
2023-10-26T04:45:32.925Z,98907.84
2023-10-26T04:48:19.286Z,98909.53
2023-10-26T04:51:05.878Z,98909.72
2023-10-26T04:53:53.705Z,98903.69
2023-10-26T04:56:40.272Z,98912.66
2023-10-26T04:59:28.099Z,98910.16
2023-10-26T05:02:14.624Z,98911.00
2023-10-26T05:05:00.858Z,98905.97
2023-10-26T05:07:47.511Z,98916.84
2023-10-26T05:10:33.848Z,98911.41
2023-10-26T05:13:20.112Z,98917.03
2023-10-26T05:16:08.442Z,98914.53
2023-10-26T05:18:55.425Z,98920.78
2023-10-26T05:21:41.754Z,98916.38
2023-10-26T05:24:29.018Z,98909.31
2023-10-26T05:27:15.421Z,98919.31
2023-10-26T05:30:02.296Z,98913.06
2023-10-26T05:32:50.397Z,98908.44
2023-10-26T05:35:36.857Z,98903.44
2023-10-26T05:38:23.434Z,98908.84
2023-10-26T05:41:09.776Z,98914.28
2023-10-26T05:43:56.382Z,98913.47
2023-10-26T05:46:42.711Z,98914.28
2023-10-26T05:49:30.620Z,98912.63
2023-10-26T05:52:16.881Z,98912.63
2023-10-26T05:55:03.926Z,98916.78
2023-10-26T05:57:49.938Z,98916.59
2023-10-26T06:00:36.454Z,98921.00
2023-10-26T06:03:22.966Z,98923.72
2023-10-26T06:06:11.116Z,98933.94
2023-10-26T06:08:57.573Z,98932.06
2023-10-26T06:11:43.982Z,98933.75
2023-10-26T06:14:30.455Z,98942.50
2023-10-26T06:17:17.342Z,98946.06
2023-10-26T06:20:04.777Z,98951.47
2023-10-26T06:22:52.690Z,98946.91
2023-10-26T06:25:40.295Z,98946.91
2023-10-26T06:28:26.638Z,98958.59
2023-10-26T06:31:15.435Z,98953.16
2023-10-26T06:34:02.067Z,98961.94
2023-10-26T06:36:49.051Z,98965.72
2023-10-26T06:39:36.494Z,98960.28
2023-10-26T06:42:22.778Z,98956.50
2023-10-26T06:45:18.615Z,98954.44
2023-10-26T06:48:05.089Z,98954.88
2023-10-26T06:50:58.478Z,98948.38
2023-10-26T06:53:45.140Z,98959.03
2023-10-26T06:56:32.758Z,98960.31
2023-10-26T06:59:18.872Z,98969.47
2023-10-26T07:02:09.692Z,98969.47
2023-10-26T07:04:59.010Z,98971.16
2023-10-26T07:07:45.638Z,98969.94
2023-10-26T07:10:32.472Z,98971.59
2023-10-26T07:13:20.316Z,98975.78
2023-10-26T07:16:07.349Z,98974.97
2023-10-26T07:18:54.064Z,98979.94
2023-10-26T07:21:40.490Z,98976.59
2023-10-26T07:24:27.185Z,98982.84
2023-10-26T07:27:13.553Z,98974.06
2023-10-26T07:30:02.388Z,98982.41
2023-10-26T07:32:49.100Z,98984.94
2023-10-26T07:35:39.917Z,98989.94
2023-10-26T07:38:35.841Z,98987.44
2023-10-26T07:42:06.917Z,98991.16
2023-10-26T07:44:34.758Z,98996.59
2023-10-26T07:47:23.140Z,98987.63
2023-10-26T07:50:09.613Z,98992.84
2023-10-26T07:52:56.249Z,98997.88
2023-10-26T07:55:42.742Z,98996.19
2023-10-26T07:58:29.341Z,99008.75
2023-10-26T08:01:15.561Z,99017.91
2023-10-26T08:04:03.669Z,99019.59
2023-10-26T08:06:49.923Z,99025.03
2023-10-26T08:09:36.381Z,99022.13
2023-10-26T08:12:22.899Z,99017.50
2023-10-26T08:16:10.677Z,99019.59
2023-10-26T08:18:16.000Z,99025.88
2023-10-26T08:21:04.333Z,99026.69
2023-10-26T08:23:50.709Z,99018.53
2023-10-26T08:26:37.074Z,99021.25
2023-10-26T08:29:28.027Z,99032.13
2023-10-26T08:32:16.453Z,99022.13
2023-10-26T08:35:04.502Z,99028.38
2023-10-26T08:37:52.774Z,99035.47
2023-10-26T08:40:38.969Z,99027.97
2023-10-26T08:43:25.780Z,99036.13
2023-10-26T08:46:12.965Z,99043.19
2023-10-26T08:49:02.783Z,99045.09
2023-10-26T08:51:48.956Z,99051.34
2023-10-26T08:54:36.772Z,99052.28
2023-10-26T08:57:23.040Z,99045.63
2023-10-26T09:00:10.377Z,99047.66
2023-10-26T09:02:57.545Z,99056.38
2023-10-26T09:05:53.068Z,99064.78
2023-10-26T09:08:39.938Z,99062.31
2023-10-26T09:11:27.919Z,99058.78
2023-10-26T09:14:15.012Z,99057.75
2023-10-26T09:17:01.771Z,99061.50
2023-10-26T09:19:48.257Z,99065.28
2023-10-26T09:22:38.487Z,99075.72
2023-10-26T09:25:26.541Z,99071.19
2023-10-26T09:28:14.620Z,99078.72
2023-10-26T09:31:02.034Z,99075.16
2023-10-26T09:33:48.903Z,99082.03
2023-10-26T09:36:35.277Z,99085.56
2023-10-26T09:39:21.699Z,99084.84
2023-10-26T09:45:18.955Z,99091.81
2023-10-26T09:48:06.699Z,99092.94
2023-10-26T09:50:54.242Z,99085.56
2023-10-26T09:53:43.485Z,99096.06
2023-10-26T09:56:32.832Z,99092.09
2023-10-26T09:59:19.039Z,99096.25
2023-10-26T10:02:15.918Z,99093.31
2023-10-26T10:05:02.237Z,99096.44
2023-10-26T10:07:48.559Z,99094.59
2023-10-26T10:10:35.544Z,99096.50
2023-10-26T10:13:36.751Z,99101.47
2023-10-26T10:16:44.446Z,99092.06
2023-10-26T10:19:34.503Z,99087.25
2023-10-26T10:22:39.648Z,99101.25
2023-10-26T10:25:41.324Z,99095.41
2023-10-26T10:28:41.887Z,99105.25
2023-10-26T10:31:43.102Z,99107.63
2023-10-26T10:34:31.154Z,99107.69
2023-10-26T10:37:22.925Z,99106.38
2023-10-26T10:40:13.541Z,99103.09
2023-10-26T10:43:00.053Z,99104.78
2023-10-26T10:45:46.522Z,99112.78
2023-10-26T10:48:33.411Z,99101.75
2023-10-26T10:51:20.068Z,99092.72
2023-10-26T10:54:24.196Z,99102.72
2023-10-26T10:57:15.179Z,99088.03
2023-10-26T11:00:01.446Z,99100.09
2023-10-26T11:02:48.880Z,99105.81
2023-10-26T11:05:38.654Z,99100.53
2023-10-26T11:08:25.409Z,99095.69
2023-10-26T11:11:28.156Z,99099.47
2023-10-26T11:14:14.418Z,99098.69
2023-10-26T11:17:01.902Z,99105.78
2023-10-26T11:19:48.695Z,99101.81
2023-10-26T11:22:35.580Z,99099.88
2023-10-26T11:25:26.166Z,99100.16
2023-10-26T11:28:14.032Z,99105.50
2023-10-26T11:31:01.118Z,99108.94
2023-10-26T11:33:47.748Z,99110.00
2023-10-26T11:36:34.507Z,99109.09
2023-10-26T11:39:20.791Z,99093.06
2023-10-26T11:42:06.914Z,99110.09
2023-10-26T11:44:59.509Z,99115.06
2023-10-26T11:47:48.965Z,99112.56
2023-10-26T11:50:36.446Z,99119.53
2023-10-26T11:53:23.768Z,99119.31
2023-10-26T11:56:10.546Z,99105.00
2023-10-26T11:58:56.882Z,99112.88
2023-10-26T12:01:44.930Z,99124.69
2023-10-26T12:04:31.423Z,99116.31
2023-10-26T12:07:17.897Z,99110.00
2023-10-26T12:10:05.513Z,99119.03
2023-10-26T12:12:52.250Z,99126.41
2023-10-26T12:15:38.974Z,99121.28
2023-10-26T12:18:28.269Z,99135.00
2023-10-26T12:21:14.883Z,99131.16
2023-10-26T12:24:01.867Z,99128.94
2023-10-26T12:26:48.335Z,99138.53
2023-10-26T12:29:35.906Z,99141.81
2023-10-26T12:32:23.082Z,99142.47
2023-10-26T12:35:10.983Z,99145.19
2023-10-26T12:37:57.909Z,99146.41
2023-10-26T12:40:44.447Z,99149.91
2023-10-26T12:43:31.010Z,99150.41
2023-10-26T12:46:17.992Z,99151.19
2023-10-26T12:49:04.917Z,99146.41
2023-10-26T12:51:53.583Z,99154.16
2023-10-26T12:54:40.320Z,99157.84
2023-10-26T12:57:26.720Z,99157.91
2023-10-26T13:00:13.962Z,99149.44
2023-10-26T13:03:00.865Z,99143.56
2023-10-26T13:05:47.380Z,99148.97
2023-10-26T13:08:35.505Z,99148.97
2023-10-26T13:11:22.392Z,99150.75
2023-10-26T13:14:09.402Z,99152.50
2023-10-26T13:16:57.591Z,99154.16
2023-10-26T13:19:45.939Z,99155.06
2023-10-26T13:22:37.023Z,99157.00
2023-10-26T13:25:27.048Z,99164.03
2023-10-26T13:28:14.233Z,99168.38
2023-10-26T13:31:02.026Z,99167.84
2023-10-26T13:34:01.455Z,99163.28
2023-10-26T13:36:50.989Z,99158.66
2023-10-26T13:39:38.742Z,99164.38
2023-10-26T13:42:28.095Z,99157.28
2023-10-26T13:45:19.932Z,99164.94
2023-10-26T13:48:08.151Z,99161.38
2023-10-26T13:51:04.215Z,99166.81
2023-10-26T13:53:51.298Z,99166.63
2023-10-26T13:56:42.956Z,99178.69
2023-10-26T13:59:31.746Z,99174.56
2023-10-26T14:02:29.036Z,99179.16
2023-10-26T14:05:30.070Z,99176.69
2023-10-26T14:08:18.777Z,99186.69
2023-10-26T14:11:18.776Z,99178.06
2023-10-26T14:14:10.612Z,99196.38
2023-10-26T14:17:05.448Z,99181.78
2023-10-26T14:19:56.453Z,99185.09
2023-10-26T14:22:47.777Z,99186.59
2023-10-26T14:25:35.408Z,99180.88
2023-10-26T14:28:22.603Z,99178.13
2023-10-26T14:31:12.143Z,99181.03
2023-10-26T14:34:01.548Z,99175.34
2023-10-26T14:36:48.810Z,99178.94
2023-10-26T14:39:36.208Z,99172.50
2023-10-26T14:42:23.159Z,99170.63
2023-10-26T14:45:13.573Z,99168.03
2023-10-26T14:48:00.690Z,99179.97
2023-10-26T14:50:49.266Z,99171.84
2023-10-26T14:53:35.808Z,99174.28
2023-10-26T14:56:22.420Z,99174.31
2023-10-26T14:59:10.793Z,99171.25
2023-10-26T15:01:57.594Z,61234.22
2023-10-26T15:04:47.328Z,61234.22
2023-10-26T15:35:46.937Z,61234.22
2023-10-26T15:38:36.468Z,61234.22
2023-10-26T15:41:48.489Z,61234.22
2023-10-26T15:44:55.656Z,61234.22
2023-10-26T15:47:44.093Z,61234.22
2023-10-26T15:50:31.288Z,61234.22
2023-10-26T15:53:20.188Z,61234.22
2023-10-26T15:56:10.969Z,61234.22
2023-10-26T15:59:01.510Z,61234.22
2023-10-26T16:01:51.652Z,61234.22
2023-10-26T16:04:38.898Z,61234.22
2023-10-26T16:07:28.503Z,61234.22
2023-10-26T16:10:15.686Z,61234.22
2023-10-26T16:13:02.193Z,61234.22
2023-10-26T16:15:50.535Z,61234.22
2023-10-26T16:18:37.213Z,61234.22
2023-10-26T16:21:24.256Z,61234.22
2023-10-26T16:24:11.878Z,61234.22
2023-10-26T16:26:58.882Z,61234.22
2023-10-26T16:29:47.920Z,61234.22
2023-10-26T16:32:37.665Z,61234.22
2023-10-26T16:35:24.685Z,61234.22
2023-10-26T16:38:14.185Z,61234.22
2023-10-26T16:41:01.019Z,61234.22
2023-10-26T16:43:48.213Z,61234.22
2023-10-26T16:46:34.690Z,61234.22
2023-10-26T16:49:23.868Z,61234.22
2023-10-26T16:52:10.690Z,61234.22
2023-10-26T16:54:57.901Z,61234.22
2023-10-26T16:57:45.271Z,61234.22
2023-10-26T17:00:32.441Z,61234.22
2023-10-26T17:03:19.113Z,61234.22
2023-10-26T17:06:09.986Z,61234.22
2023-10-26T17:08:57.112Z,61234.22
2023-10-26T17:11:43.779Z,61234.22
2023-10-26T17:14:31.944Z,61234.22
2023-10-26T17:17:19.508Z,61234.22
2023-10-26T17:20:09.944Z,61234.22
2023-10-26T17:22:58.382Z,61234.22
2023-10-26T17:25:45.166Z,61234.22
2023-10-26T17:28:31.881Z,61234.22
2023-10-26T17:31:18.867Z,61234.22
2023-10-26T17:34:06.036Z,61234.22
2023-10-26T17:36:53.263Z,61234.22
2023-10-26T17:39:42.460Z,61234.22
2023-10-26T17:42:39.085Z,61234.22
2023-10-26T17:45:27.253Z,61234.22
2023-10-26T17:48:19.245Z,61234.22
2023-10-26T17:51:12.190Z,61234.22
2023-10-26T17:54:02.171Z,61234.22
2023-10-26T17:56:50.534Z,61234.22
2023-10-26T17:59:37.409Z,61234.22
2023-10-26T18:02:24.316Z,61234.22
2023-10-26T18:05:18.235Z,61234.22
2023-10-26T18:08:26.302Z,61234.22
2023-10-26T18:11:20.282Z,61234.22
2023-10-26T18:14:08.481Z,61234.22
2023-10-26T18:16:56.123Z,61234.22
2023-10-26T18:19:43.654Z,61234.22
2023-10-26T18:22:30.710Z,61234.22
2023-10-26T18:25:17.767Z,61234.22
2023-10-26T18:28:05.939Z,61234.22
2023-10-26T18:31:03.121Z,61234.22
2023-10-26T18:33:50.504Z,61234.22
2023-10-26T18:36:46.012Z,61234.22
2023-10-26T18:39:35.440Z,61234.22
2023-10-26T18:42:23.654Z,61234.22
2023-10-26T18:45:14.306Z,61234.22
2023-10-26T18:48:03.435Z,61234.22
2023-10-26T18:50:52.252Z,61234.22
2023-10-26T18:53:42.532Z,61234.22
2023-10-26T18:56:29.545Z,61234.22
2023-10-26T18:59:16.248Z,61234.22
2023-10-26T19:02:04.223Z,61234.22
2023-10-26T19:04:52.577Z,61234.22
2023-10-26T19:07:39.427Z,61234.22
2023-10-26T19:10:26.499Z,61234.22
2023-10-26T19:13:13.908Z,61234.22
2023-10-26T19:16:00.466Z,61234.22
2023-10-26T19:23:13.245Z,61234.22
2023-10-26T19:26:12.261Z,61234.22
2023-10-26T19:28:58.966Z,61234.22
2023-10-26T19:31:45.576Z,61234.22
2023-10-26T19:34:32.375Z,61234.22
2023-10-26T19:37:19.195Z,61234.22
2023-10-26T19:40:07.118Z,61234.22
2023-10-26T19:45:31.803Z,99231.69
2023-10-26T19:48:18.671Z,99229.56
2023-10-26T19:51:05.390Z,99238.78
2023-10-26T19:53:53.224Z,99235.19
2023-10-26T19:56:39.423Z,99249.09
2023-10-26T19:59:26.043Z,99241.31
2023-10-26T20:02:14.294Z,99229.47
2023-10-26T20:05:00.586Z,99225.69
2023-10-26T20:07:47.155Z,99231.78
2023-10-26T20:10:33.560Z,99228.41
2023-10-26T20:13:20.007Z,99227.38
2023-10-26T20:16:06.736Z,99238.88
2023-10-26T20:19:00.437Z,99235.53
2023-10-26T20:21:46.651Z,99248.69
2023-10-26T20:24:32.936Z,99237.66
2023-10-26T20:27:19.180Z,99238.28
2023-10-26T20:30:06.416Z,99237.84
2023-10-26T20:32:53.113Z,99230.28
2023-10-26T20:35:42.179Z,99239.44
2023-10-26T20:38:28.671Z,99237.59
2023-10-26T20:41:15.056Z,99233.25
2023-10-26T20:44:02.029Z,99232.81
2023-10-26T20:46:48.808Z,99227.00
2023-10-26T20:49:35.211Z,99229.72
2023-10-26T20:52:23.546Z,99227.00
2023-10-26T20:55:10.318Z,99221.38
2023-10-26T20:57:56.537Z,99221.19
2023-10-26T21:00:43.568Z,99225.97
2023-10-26T21:03:30.112Z,99228.69
2023-10-26T21:06:16.732Z,99229.53
2023-10-26T21:09:05.654Z,99222.88
2023-10-26T21:11:52.145Z,99224.28
2023-10-26T21:14:38.554Z,99219.41
2023-10-26T21:17:25.390Z,99212.41
2023-10-26T21:20:12.762Z,99219.66
2023-10-26T21:22:59.024Z,99210.78
2023-10-26T21:25:47.693Z,99208.75
2023-10-26T21:28:35.043Z,99213.31
2023-10-26T21:31:21.259Z,99215.19
2023-10-26T21:34:07.645Z,99218.91
2023-10-26T21:36:54.001Z,99217.44
2023-10-26T21:39:40.507Z,99212.03
2023-10-26T21:42:28.310Z,99215.38
2023-10-26T21:45:14.726Z,99204.84
2023-10-26T21:48:01.762Z,99215.09
2023-10-26T21:50:48.201Z,99226.31
2023-10-26T21:53:34.610Z,99231.94
2023-10-26T21:56:21.239Z,99234.84
2023-10-26T21:59:09.288Z,99228.41
2023-10-26T22:01:55.545Z,99219.03
2023-10-26T22:04:44.172Z,99211.75
2023-10-26T22:07:30.367Z,99208.19
2023-10-26T22:10:16.865Z,99194.25
2023-10-26T22:13:03.493Z,99208.28
2023-10-26T22:15:51.237Z,99207.59
2023-10-26T22:18:37.413Z,99198.44
2023-10-26T22:21:23.977Z,99198.00
2023-10-26T22:24:10.975Z,99187.59
2023-10-26T22:26:57.274Z,99199.09
2023-10-26T22:29:43.969Z,99197.22
2023-10-26T22:32:31.744Z,99201.81
2023-10-26T22:35:17.905Z,99201.81
2023-10-26T22:38:04.635Z,99192.63
2023-10-26T22:40:50.952Z,99192.00
2023-10-26T22:43:37.309Z,99192.63
2023-10-26T22:46:23.731Z,99193.47
2023-10-26T22:49:11.623Z,99198.06
2023-10-26T22:51:57.792Z,99196.38
2023-10-26T22:54:44.312Z,99189.94
2023-10-26T22:57:30.469Z,99193.47
2023-10-26T23:00:17.290Z,99189.09
2023-10-26T23:03:03.958Z,99189.75
2023-10-26T23:05:59.032Z,99188.25
2023-10-26T23:08:45.539Z,99190.94
2023-10-26T23:11:31.926Z,99192.44
2023-10-26T23:14:18.396Z,99193.66
2023-10-26T23:17:05.214Z,99184.50
2023-10-26T23:19:52.581Z,99184.94
2023-10-26T23:22:40.450Z,99179.34
2023-10-26T23:25:27.018Z,99176.44
2023-10-26T23:28:14.276Z,99175.16
2023-10-26T23:31:00.695Z,99168.88
2023-10-26T23:33:47.358Z,99165.53
2023-10-26T23:36:33.570Z,99165.13
2023-10-26T23:39:21.345Z,99160.09
2023-10-26T23:42:08.020Z,99157.38
2023-10-26T23:44:54.548Z,99152.78
2023-10-26T23:47:41.897Z,99159.06
2023-10-26T23:50:28.508Z,99150.94
2023-10-26T23:53:16.189Z,99146.34
2023-10-26T23:56:04.089Z,99158.03
2023-10-26T23:58:50.551Z,99159.06
